Mancos, CO

7:37 PM MDT on September 28, 2016 (GMT -0600)
Merritt Subdivision | | Change Station

Elev 7028 ft 37.47 °N, 108.49 °W | Updated 6 minutes ago

Mostly Cloudy
Mostly Cloudy
63.0 °F
Feels Like 63.0 °F
N
0.0
Wind Variable Wind from West
Gusts 0.0 mph

Today
High -- | Low -- °F
--% Chance of Precip.
Yesterday
High -- | Low -- °F
Precip. -- in
Pressure 30.13 in
Visibility 10.0 miles
Clouds Mostly Cloudy 9000 ft
Dew Point 38 °F
Humidity 40%
Rainfall 0.00 in
Snow Depth Not available.
7:06 AM 7:00 PM
Waning Crescent, 4% visible
METAR KCEZ 290053Z AUTO 27006KT 10SM BKN090 22/05 A3027 RMK AO2 SLP202 T02170050
Pressure 30.13 in
Visibility 10.0 miles
Clouds Mostly Cloudy 9000 ft
Dew Point 38 °F
Humidity 40%
Rainfall 0.00 in
Snow Depth Not available.
7:06 AM 7:00 PM
Waning Crescent, 4% visible
METAR KCEZ 290053Z AUTO 27006KT 10SM BKN090 22/05 A3027 RMK AO2 SLP202 T02170050

10-Day Weather Forecast

Almanac

Astronomy

Sep. 28, 2016 Rise Set
Actual Time
Civil Twilight
Nautical Twilight
Astronomical Twilight
Moon
Length of Visible Light
Length of Day
Tomorrow will be .
, % of the Moon is Illuminated

Today's Extremes

State Highs State Lows

Community

WunderPhotos

Upload Photos

1,942,390 photos uploaded!

WunderBlog® & News

Nearby

Air Quality

  Air Quality AQ Index Pollutant
Not available.

Snow Depth

Station Depth Elevation

Earthquake Activity

City Distance Mag. Time & Date
Minimum magnitude displayed is 2.5.

Coastal Water Temperatures

Place Temperature

Stations

Nearby Weather Stations

Station Location Temp. Windchill Dew Point Humidity Wind Precip. Elev Updated Type
                   

Watches & Warnings

There are currently no watches in effect.